Time;durP1;ratioP1;P1;durP2;ratioP2;P2;SDS_P1;SDS_P2;PMS_P1;PMS_P2;Temp;Humidity;BMP_temperature;BMP_pressure;BME280_temperature;BME280_humidity;BME280_pressure;Samples;Min_cycle;Max_cycle;Signal;HPM_P1;HPM_P2
2022/10/06 00:00:45;;;;;;;5.97;1.58;;;;;;;13.26;86.51;102131.63;6179780;23;20012;-92
2022/10/06 00:03:10;;;;;;;6.85;1.20;;;;;;;13.21;86.49;102141.25;6180673;23;19997;-91
2022/10/06 00:05:36;;;;;;;7.65;1.23;;;;;;;13.18;86.88;102148.22;6179322;23;20315;-92
2022/10/06 00:08:02;;;;;;;7.82;1.30;;;;;;;13.22;87.13;102166.41;6180289;23;20056;-92
2022/10/06 00:10:28;;;;;;;7.63;1.30;;;;;;;13.16;87.04;102171.72;6181555;23;20008;-92
2022/10/06 00:12:54;;;;;;;7.80;1.33;;;;;;;13.11;87.73;102176.06;6181085;23;19997;-92
2022/10/06 00:15:22;;;;;;;8.60;1.25;;;;;;;13.05;87.63;102173.53;6180822;23;20005;-92
2022/10/06 00:17:47;;;;;;;7.20;1.33;;;;;;;13.10;87.81;102183.91;6180485;23;20005;-91
2022/10/06 00:20:13;;;;;;;8.95;1.52;;;;;;;12.97;87.48;102175.38;6180292;23;20059;-92
2022/10/06 00:22:41;;;;;;;9.77;1.63;;;;;;;13.03;87.46;102194.38;6181921;23;20001;-92
2022/10/06 00:25:11;;;;;;;8.82;1.60;;;;;;;12.92;87.75;102182.38;6180524;23;20001;-92
2022/10/06 00:27:39;;;;;;;7.78;1.60;;;;;;;12.88;87.44;102186.75;6181499;23;20466;-91
2022/10/06 00:30:08;;;;;;;10.38;1.58;;;;;;;12.93;87.11;102207.53;6181709;23;20005;-91
2022/10/06 00:32:34;;;;;;;8.32;1.40;;;;;;;12.95;87.28;102214.44;6180930;23;20001;-91
2022/10/06 00:35:00;;;;;;;7.82;1.40;;;;;;;12.90;86.61;102217.94;6182069;23;20024;-92
2022/10/06 00:37:27;;;;;;;6.55;1.30;;;;;;;12.77;86.31;102200.75;6180889;23;20047;-92
2022/10/06 00:39:52;;;;;;;7.55;1.50;;;;;;;12.75;86.15;102203.41;6182219;23;20005;-92
2022/10/06 00:42:26;;;;;;;7.90;1.35;;;;;;;12.82;86.34;102225.88;6180550;23;20008;-92
2022/10/06 00:44:51;;;;;;;6.70;1.43;;;;;;;12.88;86.74;102243.16;6180928;23;20004;-91
2022/10/06 00:47:19;;;;;;;11.68;1.75;;;;;;;12.80;87.17;102226.75;6181426;23;20008;-92
2022/10/06 00:49:45;;;;;;;9.75;1.60;;;;;;;12.86;87.26;102240.56;6178136;23;20008;-92
2022/10/06 00:52:15;;;;;;;7.18;1.40;;;;;;;12.74;85.73;102227.69;6181866;23;20047;-92
2022/10/06 00:54:43;;;;;;;11.32;1.80;;;;;;;12.65;84.93;102225.16;6181041;23;19997;-92
2022/10/06 00:57:09;;;;;;;6.80;1.38;;;;;;;12.73;84.78;102240.72;6180200;23;20357;-91
2022/10/06 00:59:37;;;;;;;9.90;1.50;;;;;;;12.70;84.93;102244.19;6182100;23;20059;-91
2022/10/06 01:02:15;;;;;;;7.45;1.40;;;;;;;12.75;84.69;102254.56;6180056;23;20451;-93
2022/10/06 01:04:46;;;;;;;8.88;1.45;;;;;;;12.66;85.12;102238.16;6180953;23;20008;-92
2022/10/06 01:07:12;;;;;;;9.32;1.42;;;;;;;12.70;85.48;102257.19;6181120;23;20005;-92
2022/10/06 01:09:40;;;;;;;13.10;1.67;;;;;;;12.60;84.68;102246.03;6180922;23;20005;-91
2022/10/06 01:12:07;;;;;;;7.53;1.35;;;;;;;12.64;85.07;102263.31;6204815;23;20074;-92
2022/10/06 01:14:35;;;;;;;11.52;1.40;;;;;;;12.51;85.18;102246.13;6180454;23;20378;-92
2022/10/06 01:17:17;;;;;;;9.00;1.58;;;;;;;12.62;85.46;102278.09;6181103;23;20004;-91
2022/10/06 01:19:53;;;;;;;12.77;1.50;;;;;;;12.59;85.53;102272.94;6181963;23;20339;-92
2022/10/06 01:22:29;;;;;;;8.18;1.23;;;;;;;12.45;85.92;102261.78;6180503;23;20037;-92
2022/10/06 01:24:55;;;;;;;7.93;1.60;;;;;;;12.60;86.91;102299.81;6179946;23;20016;-92
2022/10/06 01:27:22;;;;;;;8.90;1.60;;;;;;;12.44;86.55;102273.06;6181119;23;20019;-92
2022/10/06 01:29:52;;;;;;;6.28;1.30;;;;;;;12.52;86.66;102293.78;6181242;23;20008;-91
2022/10/06 01:32:18;;;;;;;5.95;1.27;;;;;;;12.48;86.85;102295.56;6181342;23;20005;-91
2022/10/06 01:34:44;;;;;;;10.35;1.40;;;;;;;12.54;86.88;102303.31;6181710;23;20470;-91
2022/10/06 01:37:09;;;;;;;12.57;1.55;;;;;;;12.41;87.09;102286.09;6180860;23;20030;-91
2022/10/06 01:39:34;;;;;;;7.10;1.20;;;;;;;12.45;87.01;102297.31;6181407;23;20104;-91
2022/10/06 01:42:00;;;;;;;6.65;1.33;;;;;;;12.34;86.87;102291.34;6181390;23;19997;-92
2022/10/06 01:44:25;;;;;;;10.68;1.55;;;;;;;12.37;87.33;102302.56;6179260;23;20001;-91
2022/10/06 01:46:51;;;;;;;8.15;1.85;;;;;;;12.34;87.16;102310.41;6181080;23;20011;-92
2022/10/06 01:49:16;;;;;;;9.38;1.55;;;;;;;12.33;87.19;102308.69;6179409;23;20009;-91
2022/10/06 01:51:44;;;;;;;6.68;1.30;;;;;;;12.30;87.68;102305.22;6179217;23;20028;-92
2022/10/06 01:54:09;;;;;;;9.13;1.30;;;;;;;12.25;87.28;102308.75;6179420;23;20462;-91
2022/10/06 01:56:34;;;;;;;8.82;1.52;;;;;;;12.24;87.26;102313.94;6179721;23;20025;-91
2022/10/06 01:59:00;;;;;;;15.80;1.95;;;;;;;12.32;88.47;102326.91;6180094;23;20068;-92
2022/10/06 02:01:25;;;;;;;11.90;1.80;;;;;;;12.26;87.46;102318.28;6180597;23;20081;-92
2022/10/06 02:03:51;;;;;;;9.07;1.40;;;;;;;12.23;87.06;102338.22;6180714;23;20346;-92
2022/10/06 02:06:16;;;;;;;7.25;1.88;;;;;;;12.26;87.01;102346.88;6179231;23;20342;-92
2022/10/06 02:08:42;;;;;;;8.98;1.80;;;;;;;12.15;86.86;102329.59;6177716;23;20063;-91
2022/10/06 02:11:09;;;;;;;9.57;1.50;;;;;;;12.09;86.75;102327.91;6180819;23;20008;-91
2022/10/06 02:13:36;;;;;;;8.95;1.50;;;;;;;12.07;86.65;102331.41;6179460;23;20490;-92
2022/10/06 02:16:01;;;;;;;10.50;1.85;;;;;;;12.14;87.28;102351.28;6178920;23;20008;-92
2022/10/06 02:18:26;;;;;;;8.95;1.40;;;;;;;12.19;87.93;102359.91;6178157;23;20001;-91
2022/10/06 02:20:52;;;;;;;9.23;1.60;;;;;;;12.12;87.22;102355.63;6178021;23;20461;-91
2022/10/06 02:23:18;;;;;;;8.90;1.50;;;;;;;12.05;86.98;102354.81;6179776;23;20434;-91
2022/10/06 02:25:43;;;;;;;8.45;1.60;;;;;;;11.99;87.05;102356.56;6179075;23;20454;-91
2022/10/06 02:28:08;;;;;;;9.27;1.60;;;;;;;12.07;87.29;102373.84;6179936;23;20637;-92
2022/10/06 02:30:34;;;;;;;10.15;1.60;;;;;;;12.03;88.18;102363.47;6179592;23;20083;-91
2022/10/06 02:33:00;;;;;;;10.07;2.00;;;;;;;11.97;87.24;102366.09;6181513;23;20537;-92
2022/10/06 02:35:25;;;;;;;9.30;1.73;;;;;;;12.05;87.08;102386.00;6181772;23;20013;-92
2022/10/06 02:37:50;;;;;;;9.52;1.60;;;;;;;12.04;87.57;102388.59;6182068;23;20551;-90
2022/10/06 02:40:16;;;;;;;10.32;1.45;;;;;;;12.00;88.01;102389.50;6179453;23;20499;-91
2022/10/06 02:42:42;;;;;;;9.60;1.50;;;;;;;11.93;87.24;102388.66;6181364;23;20355;-90
2022/10/06 02:45:08;;;;;;;8.23;1.80;;;;;;;11.86;87.55;102390.41;6182350;23;20007;-92
2022/10/06 02:47:36;;;;;;;9.88;1.75;;;;;;;11.87;87.51;102393.88;6181763;23;20005;-91
2022/10/06 02:50:06;;;;;;;12.20;1.80;;;;;;;11.94;87.77;102405.94;6183493;23;20096;-91
2022/10/06 02:52:33;;;;;;;12.00;1.50;;;;;;;11.92;87.59;102407.72;6181576;23;20001;-91
2022/10/06 02:54:59;;;;;;;11.85;1.88;;;;;;;11.89;87.32;102415.50;6182500;23;20004;-91
2022/10/06 02:57:25;;;;;;;8.77;1.40;;;;;;;11.85;87.56;102419.84;6181542;23;20051;-91
2022/10/06 02:59:50;;;;;;;16.45;2.05;;;;;;;11.79;88.89;102416.41;6182724;23;20403;-91
2022/10/06 03:02:16;;;;;;;15.68;2.38;;;;;;;11.82;88.38;102425.06;6180087;23;20016;-91
2022/10/06 03:04:41;;;;;;;8.95;1.80;;;;;;;11.77;87.22;102429.41;6179364;23;20127;-91
2022/10/06 03:07:06;;;;;;;11.93;2.00;;;;;;;11.66;87.42;102425.09;6179628;23;20012;-92
2022/10/06 03:09:32;;;;;;;9.82;1.85;;;;;;;11.66;87.72;102431.16;6180008;23;20005;-91
2022/10/06 03:11:57;;;;;;;8.07;1.90;;;;;;;11.56;87.72;102423.38;6182360;23;20001;-90
2022/10/06 03:14:23;;;;;;;12.07;1.95;;;;;;;11.57;88.78;102431.16;6181771;23;20005;-91
2022/10/06 03:16:50;;;;;;;10.73;1.70;;;;;;;11.67;88.31;102458.00;6180072;23;20091;-91
2022/10/06 03:19:16;;;;;;;10.20;1.70;;;;;;;11.64;89.27;102458.00;6181539;23;20023;-91
2022/10/06 03:21:42;;;;;;;7.68;1.55;;;;;;;11.59;88.63;102458.00;6179557;23;20332;-92
2022/10/06 03:24:09;;;;;;;7.28;1.67;;;;;;;11.52;88.01;102451.09;6181121;23;20001;-91
2022/10/06 03:26:38;;;;;;;12.00;1.63;;;;;;;11.58;88.84;102465.78;6180806;23;20001;-91
2022/10/06 03:29:05;;;;;;;11.77;1.90;;;;;;;11.54;88.76;102464.06;6181646;23;20034;-90
2022/10/06 03:31:30;;;;;;;8.00;1.63;;;;;;;11.49;89.81;102464.94;6181488;23;20001;-89
2022/10/06 03:33:56;;;;;;;13.55;1.80;;;;;;;11.47;88.79;102468.38;6177746;23;19997;-90
2022/10/06 03:36:23;;;;;;;11.10;1.88;;;;;;;11.46;88.99;102479.66;6179101;23;20013;-90
2022/10/06 03:38:49;;;;;;;9.27;1.73;;;;;;;11.44;89.37;102478.81;6179021;23;20005;-90
2022/10/06 03:41:28;;;;;;;12.10;2.13;;;;;;;11.42;89.03;102486.59;6180801;23;20063;-90
2022/10/06 03:43:56;;;;;;;14.38;1.85;;;;;;;11.41;89.29;102489.16;6180956;23;20047;-91
2022/10/06 03:46:23;;;;;;;15.35;2.50;;;;;;;11.40;90.34;102485.72;6181152;23;20446;-89
2022/10/06 03:48:51;;;;;;;12.60;2.00;;;;;;;11.37;89.89;102484.88;6180401;23;20059;-90
2022/10/06 03:51:22;;;;;;;9.30;1.77;;;;;;;11.29;89.99;102484.88;6181652;23;20024;-90
2022/10/06 03:53:49;;;;;;;9.63;1.80;;;;;;;11.21;90.31;102475.34;6204949;23;20327;-90
2022/10/06 03:56:18;;;;;;;9.98;1.80;;;;;;;11.21;90.09;102496.97;6180288;23;20004;-89
2022/10/06 03:58:45;;;;;;;14.68;1.95;;;;;;;11.26;89.96;102515.16;6181626;23;20032;-90
2022/10/06 04:01:14;;;;;;;9.70;1.88;;;;;;;11.22;90.35;102511.69;6181231;23;20020;-90
2022/10/06 04:03:39;;;;;;;13.98;1.70;;;;;;;11.13;90.05;102514.25;6178892;23;20344;-90
2022/10/06 04:06:06;;;;;;;7.68;1.80;;;;;;;11.17;90.29;102530.72;6179512;23;20503;-90
2022/10/06 04:08:35;;;;;;;13.18;1.95;;;;;;;11.05;90.65;102519.44;6179897;23;20421;-90
2022/10/06 04:11:06;;;;;;;15.13;2.40;;;;;;;11.11;91.15;102535.91;6179588;23;20044;-89
2022/10/06 04:13:32;;;;;;;13.35;2.13;;;;;;;11.03;90.97;102535.91;6181859;23;19997;-90
2022/10/06 04:15:58;;;;;;;9.93;1.80;;;;;;;11.07;91.77;102541.06;6181362;23;20005;-90
2022/10/06 04:18:23;;;;;;;9.07;1.88;;;;;;;10.94;91.32;102534.13;6180731;23;20076;-90
2022/10/06 04:20:48;;;;;;;11.15;2.00;;;;;;;10.85;91.37;102533.28;6179827;23;20005;-90
2022/10/06 04:23:15;;;;;;;11.77;2.30;;;;;;;10.85;91.44;102541.88;6180330;23;20027;-91
2022/10/06 04:25:40;;;;;;;7.50;1.77;;;;;;;10.89;91.45;102546.25;6180387;23;20012;-89
2022/10/06 04:28:06;;;;;;;9.57;1.80;;;;;;;10.92;91.66;102558.34;6180295;23;20004;-90
2022/10/06 04:30:32;;;;;;;10.73;2.05;;;;;;;10.84;92.83;102550.56;6179094;23;20004;-91
2022/10/06 04:32:57;;;;;;;12.73;2.30;;;;;;;10.88;91.83;102567.84;6179521;23;20328;-91
2022/10/06 04:35:23;;;;;;;12.05;2.00;;;;;;;10.87;92.90;102565.25;6179550;23;20039;-89
2022/10/06 04:37:49;;;;;;;15.13;2.10;;;;;;;10.79;91.83;102559.16;6181679;23;20056;-91
2022/10/06 04:40:14;;;;;;;12.63;1.98;;;;;;;10.84;92.41;102568.72;6182175;23;20001;-91
2022/10/06 04:42:40;;;;;;;11.93;1.95;;;;;;;10.85;93.57;102579.97;6180398;23;20001;-91
2022/10/06 04:45:06;;;;;;;15.45;2.20;;;;;;;10.76;92.82;102570.41;6181192;23;20575;-92
2022/10/06 04:47:32;;;;;;;15.63;2.28;;;;;;;10.80;93.03;102577.34;6180037;23;20005;-90
2022/10/06 04:49:57;;;;;;;9.65;2.47;;;;;;;10.72;93.32;102572.97;6182061;23;20011;-91
2022/10/06 04:52:22;;;;;;;13.95;2.70;;;;;;;10.70;92.35;102570.41;6180193;23;20015;-91
2022/10/06 04:54:48;;;;;;;11.98;2.40;;;;;;;10.71;92.86;102586.84;6180030;23;20497;-91
2022/10/06 04:57:13;;;;;;;10.80;2.17;;;;;;;10.68;92.75;102587.69;6179810;23;20005;-90
2022/10/06 05:02:23;;;;;;;10.10;2.13;;;;;;;10.64;92.45;102593.72;6181193;23;20016;-90
2022/10/06 05:04:48;;;;;;;10.13;2.33;;;;;;;10.65;93.79;102600.63;6179090;23;20339;-90
2022/10/06 05:07:14;;;;;;;17.85;2.42;;;;;;;10.60;93.17;102603.19;6181286;23;20005;-90
2022/10/06 05:09:39;;;;;;;14.07;2.60;;;;;;;10.51;92.54;102599.69;6181258;23;20000;-90
2022/10/06 05:12:05;;;;;;;10.07;2.05;;;;;;;10.49;92.77;102617.84;6180298;23;20048;-90
2022/10/06 05:14:32;;;;;;;9.52;2.00;;;;;;;10.45;92.68;102623.00;6179369;23;20698;-90
2022/10/06 05:16:58;;;;;;;12.55;2.30;;;;;;;10.47;92.59;102635.13;6179283;23;20005;-91
2022/10/06 05:19:23;;;;;;;12.43;2.17;;;;;;;10.45;92.36;102635.94;6181060;23;20011;-90
2022/10/06 05:21:48;;;;;;;12.80;2.30;;;;;;;10.36;92.93;102630.75;6181475;23;20028;-89
2022/10/06 05:24:14;;;;;;;16.02;2.78;;;;;;;10.27;92.52;102627.22;6180883;23;20063;-90
2022/10/06 05:26:39;;;;;;;11.80;2.10;;;;;;;10.35;93.76;102644.56;6181176;23;20571;-90
2022/10/06 05:29:08;;;;;;;10.82;2.00;;;;;;;10.33;92.81;102649.72;6179860;23;20000;-92
2022/10/06 05:31:39;;;;;;;9.35;2.10;;;;;;;10.23;93.20;102635.84;6181107;23;20008;-91
2022/10/06 05:34:05;;;;;;;16.52;2.65;;;;;;;10.32;93.27;102667.84;6180731;23;20011;-91
2022/10/06 05:36:32;;;;;;;11.02;2.10;;;;;;;10.15;93.11;102644.38;6179669;23;20045;-91
2022/10/06 05:38:58;;;;;;;13.00;2.55;;;;;;;10.12;93.45;102641.75;6180321;23;20033;-91
2022/10/06 05:41:28;;;;;;;15.10;2.53;;;;;;;10.16;93.15;102661.69;6179583;23;20021;-91
2022/10/06 05:43:55;;;;;;;10.85;2.03;;;;;;;10.19;93.24;102677.25;6179464;23;20502;-91
2022/10/06 05:46:23;;;;;;;15.10;2.70;;;;;;;10.11;93.60;102668.53;6180352;23;20074;-92
2022/10/06 05:48:54;;;;;;;13.45;2.90;;;;;;;10.08;93.21;102669.41;6178930;23;20056;-92
2022/10/06 05:51:22;;;;;;;13.63;2.50;;;;;;;10.13;94.78;102679.78;6179870;23;20080;-91
2022/10/06 05:53:47;;;;;;;11.50;2.70;;;;;;;10.01;93.50;102672.78;6180667;23;20004;-90
2022/10/06 05:56:19;;;;;;;11.32;2.65;;;;;;;10.09;95.50;102681.50;6179628;23;20005;-91
2022/10/06 05:58:46;;;;;;;18.15;3.10;;;;;;;10.06;94.71;102678.00;6179948;23;20008;-91
2022/10/06 06:01:24;;;;;;;17.33;2.67;;;;;;;10.07;95.35;102692.69;6180448;23;20005;-90
2022/10/06 06:03:50;;;;;;;15.38;2.78;;;;;;;10.13;95.05;102701.38;6181946;23;20043;-90
2022/10/06 06:06:31;;;;;;;17.65;2.75;;;;;;;10.09;94.53;102712.59;6180558;23;20001;-91
2022/10/06 06:09:00;;;;;;;17.35;2.55;;;;;;;10.08;94.05;102725.53;6183012;23;20009;-91
2022/10/06 06:11:28;;;;;;;14.65;2.60;;;;;;;9.98;94.14;102713.34;6180400;23;20043;-91
2022/10/06 06:13:58;;;;;;;15.82;2.55;;;;;;;10.05;94.55;102728.06;6182165;23;20067;-90
2022/10/06 06:16:24;;;;;;;12.98;2.60;;;;;;;9.98;95.17;102718.50;6182527;23;20001;-91
2022/10/06 06:18:50;;;;;;;13.65;2.20;;;;;;;9.87;94.08;102701.16;6183613;23;20067;-91
2022/10/06 06:21:16;;;;;;;11.77;2.70;;;;;;;9.97;93.78;102729.72;6182043;23;20035;-89
2022/10/06 06:23:46;;;;;;;15.90;2.42;;;;;;;10.01;94.59;102740.16;6182670;23;20076;-91
2022/10/06 06:26:16;;;;;;;14.93;2.50;;;;;;;10.02;95.70;102733.25;6181546;23;20000;-91
2022/10/06 06:28:45;;;;;;;18.63;2.53;;;;;;;10.01;94.29;102740.16;6181837;23;20396;-91
2022/10/06 06:31:16;;;;;;;12.93;2.80;;;;;;;10.02;94.47;102743.59;6180765;23;20361;-90
2022/10/06 06:33:42;;;;;;;16.42;3.15;;;;;;;9.98;94.01;102739.25;6181463;23;20001;-91
2022/10/06 06:36:16;;;;;;;15.32;2.47;;;;;;;10.01;94.42;102737.56;6175798;23;20017;-91
2022/10/06 06:38:42;;;;;;;15.30;2.75;;;;;;;10.03;93.84;102750.53;6180338;23;20017;-90
2022/10/06 06:41:16;;;;;;;13.82;2.78;;;;;;;10.03;94.04;102750.53;6178254;23;20016;-90
2022/10/06 06:43:41;;;;;;;18.60;3.03;;;;;;;9.96;94.58;102736.66;6181166;23;20033;-90
2022/10/06 06:46:07;;;;;;;13.73;2.60;;;;;;;10.06;94.00;102760.91;6179066;23;20012;-89
2022/10/06 06:48:36;;;;;;;12.05;2.33;;;;;;;9.95;94.79;102740.09;6180936;23;20338;-89
2022/10/06 06:51:02;;;;;;;15.70;2.83;;;;;;;10.04;94.33;102758.28;6181754;23;20092;-90
2022/10/06 06:53:28;;;;;;;19.92;3.28;;;;;;;10.07;93.98;102760.94;6180584;23;20592;-90
2022/10/06 06:55:53;;;;;;;18.25;2.92;;;;;;;10.07;93.88;102765.25;6182448;23;20005;-90
2022/10/06 06:58:19;;;;;;;21.00;2.80;;;;;;;10.03;93.93;102758.31;6182399;23;20343;-90
2022/10/06 07:00:46;;;;;;;19.35;3.20;;;;;;;10.13;95.30;102773.94;6180033;23;20245;-91
2022/10/06 07:03:17;;;;;;;17.10;3.20;;;;;;;10.14;94.08;102780.00;6181030;23;20439;-90
2022/10/06 07:05:45;;;;;;;14.23;2.80;;;;;;;10.17;94.56;102775.72;6178089;23;20013;-90
2022/10/06 07:08:14;;;;;;;16.08;2.42;;;;;;;10.17;95.18;102777.44;6180625;23;20462;-89
2022/10/06 07:10:43;;;;;;;14.60;2.88;;;;;;;10.22;93.73;102780.97;6181824;23;20048;-89
2022/10/06 07:13:13;;;;;;;16.05;2.58;;;;;;;10.26;94.25;102798.28;6181855;23;20004;-89
2022/10/06 07:26:37;;;;;;;22.65;3.25;;;;;;;10.44;94.60;102813.13;6182000;23;20059;-90
2022/10/06 07:29:02;;;;;;;17.92;3.20;;;;;;;10.44;93.81;102818.31;6180701;23;20013;-89
2022/10/06 07:31:32;;;;;;;19.80;2.92;;;;;;;10.49;93.46;102829.59;6182429;23;20005;-90
2022/10/06 07:34:03;;;;;;;15.90;2.97;;;;;;;10.52;93.14;102846.03;6182814;23;20001;-89
2022/10/06 07:36:32;;;;;;;15.63;3.08;;;;;;;10.44;93.11;102828.69;6179376;23;20017;-89
2022/10/06 07:38:57;;;;;;;15.93;2.53;;;;;;;10.59;93.04;102852.13;6182114;23;20080;-88
2022/10/06 07:41:23;;;;;;;13.70;3.08;;;;;;;10.63;93.04;102864.28;6181251;23;20516;-89
2022/10/06 07:43:49;;;;;;;17.27;2.78;;;;;;;10.64;92.36;102850.47;6182326;23;20001;-89
2022/10/06 07:46:17;;;;;;;17.92;3.30;;;;;;;10.67;92.90;102855.66;6180687;23;20005;-90
2022/10/06 07:48:45;;;;;;;19.88;2.80;;;;;;;10.70;92.75;102850.50;6181175;23;20005;-89
2022/10/06 07:51:16;;;;;;;19.83;3.05;;;;;;;10.72;92.18;102851.38;6180358;23;20029;-90
2022/10/06 07:53:45;;;;;;;18.10;2.60;;;;;;;10.68;92.48;102852.22;6182551;23;20051;-89
2022/10/06 07:56:14;;;;;;;13.95;2.83;;;;;;;10.86;92.30;102874.81;6180501;23;20036;-90
2022/10/06 07:58:40;;;;;;;14.77;3.08;;;;;;;10.84;92.10;102863.59;6182627;23;20008;-89
2022/10/06 08:01:10;;;;;;;15.90;2.83;;;;;;;10.90;91.82;102869.69;6182599;23;20004;-90
2022/10/06 08:03:36;;;;;;;12.65;2.75;;;;;;;11.01;91.92;102878.41;6180010;23;20015;-89
2022/10/06 08:06:02;;;;;;;14.20;2.50;;;;;;;11.08;92.74;102880.19;6181441;23;20087;-90
2022/10/06 08:08:35;;;;;;;20.73;2.60;;;;;;;11.14;92.06;102874.16;6180764;23;20005;-91
2022/10/06 08:11:00;;;;;;;17.73;2.67;;;;;;;11.23;91.59;102874.25;6180431;23;20005;-90
2022/10/06 08:13:26;;;;;;;16.85;2.83;;;;;;;11.35;91.35;102876.03;6180916;23;20332;-90
2022/10/06 08:15:53;;;;;;;15.50;2.88;;;;;;;11.42;90.34;102880.41;6182125;23;20468;-90
2022/10/06 08:18:20;;;;;;;19.52;3.10;;;;;;;11.49;91.87;102880.44;6181790;23;20011;-89
2022/10/06 08:20:46;;;;;;;14.35;2.40;;;;;;;11.62;90.51;102880.50;6181810;23;20012;-89
2022/10/06 08:23:12;;;;;;;14.82;2.92;;;;;;;11.67;90.33;102876.22;6181609;23;20005;-89
2022/10/06 08:25:49;;;;;;;14.85;2.95;;;;;;;11.75;89.36;102884.91;6181245;23;20008;-91
2022/10/06 08:28:14;;;;;;;13.75;2.85;;;;;;;11.83;88.90;102891.88;6180874;23;20000;-89
2022/10/06 08:30:40;;;;;;;16.00;3.13;;;;;;;11.93;90.04;102898.00;6179873;23;20015;-90
2022/10/06 08:33:05;;;;;;;18.55;2.78;;;;;;;12.03;89.45;102902.34;6181530;23;20001;-90
2022/10/06 08:35:36;;;;;;;15.85;3.17;;;;;;;11.99;88.96;102881.56;6180003;23;20017;-91
2022/10/06 08:38:01;;;;;;;17.60;2.72;;;;;;;12.20;88.42;102913.69;6180540;23;20029;-90
2022/10/06 08:40:27;;;;;;;17.70;2.83;;;;;;;12.32;88.83;102922.38;6180432;23;20005;-89
2022/10/06 08:42:57;;;;;;;14.68;2.47;;;;;;;12.37;89.70;102910.25;6181466;23;20004;-89
2022/10/06 08:45:26;;;;;;;15.90;2.70;;;;;;;12.44;87.26;102919.78;6181928;23;20080;-89
2022/10/06 08:48:05;;;;;;;11.48;2.45;;;;;;;12.52;87.07;102918.94;6179171;23;20005;-89
2022/10/06 08:50:37;;;;;;;14.88;2.70;;;;;;;12.59;85.70;102922.44;6179765;23;20047;-90
2022/10/06 08:53:18;;;;;;;11.77;2.72;;;;;;;12.69;86.80;102934.59;6179913;23;20008;-89
2022/10/06 08:55:49;;;;;;;13.98;2.30;;;;;;;12.75;85.88;102937.19;6180084;23;20004;-90
2022/10/06 08:58:29;;;;;;;13.02;2.50;;;;;;;12.84;85.89;102936.31;6181298;23;20005;-90
2022/10/06 09:01:08;;;;;;;15.40;2.20;;;;;;;12.93;85.17;102936.34;6179389;23;20005;-90
2022/10/06 09:03:34;;;;;;;14.80;2.47;;;;;;;12.99;84.76;102931.13;6179011;23;20009;-90
2022/10/06 09:06:14;;;;;;;13.10;2.70;;;;;;;13.10;85.37;102945.00;6154690;23;20001;-90
2022/10/06 09:09:13;;;;;;;10.98;2.22;;;;;;;13.16;85.58;102945.06;6181302;23;20055;-90
2022/10/06 09:12:00;;;;;;;15.25;2.67;;;;;;;13.25;84.74;102955.44;6181475;23;20005;-89
2022/10/06 09:14:46;;;;;;;13.43;2.20;;;;;;;13.32;83.75;102959.78;6179364;23;20090;-90
2022/10/06 09:17:36;;;;;;;13.98;2.50;;;;;;;13.40;82.43;102955.44;6180455;23;20024;-90
2022/10/06 09:20:10;;;;;;;43.80;7.30;;;;;;;13.49;83.45;102959.75;6204248;23;20439;-90
2022/10/06 09:22:35;;;;;;;15.35;2.60;;;;;;;13.55;81.77;102969.31;6179568;23;20143;-90
2022/10/06 09:25:21;;;;;;;13.63;2.42;;;;;;;13.64;82.06;102970.16;6181096;23;20399;-90
2022/10/06 09:27:53;;;;;;;10.70;2.10;;;;;;;13.72;81.48;102981.41;6180648;23;20009;-90
2022/10/06 09:30:18;;;;;;;15.00;2.22;;;;;;;13.83;80.54;102971.84;6178806;23;20012;-90
2022/10/06 09:32:50;;;;;;;15.85;2.45;;;;;;;13.92;81.32;102970.09;6179742;23;20005;-91
2022/10/06 09:35:20;;;;;;;18.77;2.65;;;;;;;13.97;80.15;102958.75;6180448;23;20071;-90
2022/10/06 09:38:01;;;;;;;11.55;2.20;;;;;;;14.18;79.52;102976.06;6181135;23;20008;-89
2022/10/06 09:40:38;;;;;;;14.57;2.47;;;;;;;14.28;79.20;102967.28;6181835;23;20343;-90
2022/10/06 09:43:17;;;;;;;10.18;2.28;;;;;;;14.38;79.30;102969.03;6182866;23;19997;-90
2022/10/06 09:45:42;;;;;;;13.82;2.80;;;;;;;14.51;76.75;102977.66;6183445;23;20008;-90
2022/10/06 09:48:39;;;;;;;11.57;2.15;;;;;;;14.66;75.96;102972.34;6181041;23;20001;-89
2022/10/06 09:51:12;;;;;;;10.02;2.00;;;;;;;14.77;76.39;102965.28;6178892;23;20036;-90
2022/10/06 09:53:38;;;;;;;11.93;2.30;;;;;;;14.92;76.21;102977.38;6181568;23;20375;-89
2022/10/06 09:56:11;;;;;;;13.13;2.40;;;;;;;14.96;75.98;102981.69;6183673;23;20005;-89
2022/10/06 09:58:38;;;;;;;14.32;2.20;;;;;;;15.01;73.73;102985.16;6181471;23;20016;-89
2022/10/06 10:01:13;;;;;;;13.38;2.10;;;;;;;15.02;74.24;102987.72;6182503;23;20001;-91
2022/10/06 10:03:50;;;;;;;12.85;2.10;;;;;;;15.01;73.94;102979.94;6181362;23;20091;-89
2022/10/06 10:06:30;;;;;;;10.63;2.25;;;;;;;15.06;74.56;102988.59;6181300;23;20008;-90
2022/10/06 10:09:26;;;;;;;12.18;2.10;;;;;;;15.01;74.48;102980.75;6181614;23;20359;-90
2022/10/06 10:15:02;;;;;;;11.88;1.80;;;;;;;15.28;72.08;102982.31;6182384;23;20171;-90
2022/10/06 10:17:27;;;;;;;11.68;2.00;;;;;;;15.50;71.88;102989.91;6181702;23;20036;-89
2022/10/06 10:19:53;;;;;;;14.73;2.70;;;;;;;15.67;71.08;102981.06;6180139;23;20005;-91
2022/10/06 10:22:22;;;;;;;7.97;2.17;;;;;;;15.90;70.03;102985.19;6180345;23;20005;-90
2022/10/06 10:25:12;;;;;;;14.90;2.15;;;;;;;16.14;69.62;102990.97;6180297;23;20506;-90
2022/10/06 10:27:58;;;;;;;12.30;2.03;;;;;;;16.36;69.90;102988.97;6179960;23;20335;-90
2022/10/06 10:30:25;;;;;;;14.25;2.60;;;;;;;16.50;68.59;102994.00;6179966;23;20387;-90
2022/10/06 10:33:09;;;;;;;12.55;2.70;;;;;;;16.59;68.00;102989.50;6181390;23;20059;-91
2022/10/06 10:35:45;;;;;;;8.90;2.17;;;;;;;16.64;65.67;102978.13;6181402;23;20017;-90
2022/10/06 10:38:25;;;;;;;10.35;2.53;;;;;;;16.81;67.09;102984.84;6182268;23;20004;-90
2022/10/06 10:40:58;;;;;;;8.32;2.35;;;;;;;16.81;65.87;102994.44;6181169;23;20390;-90
2022/10/06 10:43:47;;;;;;;12.30;2.72;;;;;;;16.68;64.94;102999.00;6182132;23;20013;-90
2022/10/06 10:46:31;;;;;;;8.02;2.38;;;;;;;16.58;65.49;102986.91;6180480;23;20316;-90
2022/10/06 10:49:05;;;;;;;11.75;2.60;;;;;;;16.61;66.47;102992.13;6180649;23;20012;-90
2022/10/06 10:51:35;;;;;;;11.40;2.67;;;;;;;16.66;64.84;102990.31;6179777;23;20170;-89
2022/10/06 10:54:04;;;;;;;12.48;2.58;;;;;;;16.76;64.84;102983.19;6180388;23;20012;-90
2022/10/06 10:56:32;;;;;;;12.02;2.53;;;;;;;16.91;66.10;102985.56;6182356;23;20611;-90
2022/10/06 10:59:06;;;;;;;11.35;3.20;;;;;;;17.04;62.56;102997.59;6180205;23;20087;-89
2022/10/06 11:02:08;;;;;;;12.77;3.53;;;;;;;17.04;63.58;102975.75;6182828;23;20081;-90
2022/10/06 11:04:39;;;;;;;11.48;2.95;;;;;;;16.92;62.99;102993.38;6160489;23;20004;-89
2022/10/06 11:07:23;;;;;;;9.52;2.90;;;;;;;16.77;63.46;102993.66;6182097;23;20005;-90
2022/10/06 11:10:25;;;;;;;9.27;2.67;;;;;;;16.74;65.34;102996.28;6180478;23;20012;-90
2022/10/06 11:13:15;;;;;;;11.70;3.53;;;;;;;16.77;65.30;102998.00;6182007;23;19997;-89
2022/10/06 11:16:05;;;;;;;10.95;3.10;;;;;;;16.84;65.29;103010.13;6181444;23;20008;-89
2022/10/06 11:18:45;;;;;;;12.57;3.00;;;;;;;16.84;62.82;103004.91;6181928;23;20012;-90
2022/10/06 11:21:49;;;;;;;13.95;2.75;;;;;;;16.85;65.83;102998.78;6182152;23;20001;-89
2022/10/06 11:24:31;;;;;;;10.43;2.97;;;;;;;16.93;64.21;102999.50;6180458;23;20008;-90
2022/10/06 11:27:48;;;;;;;9.10;2.90;;;;;;;16.97;64.52;102999.44;6181542;23;20011;-89
2022/10/06 11:30:18;;;;;;;9.25;3.42;;;;;;;16.93;63.10;102999.50;6155129;23;20005;-90
2022/10/06 11:32:54;;;;;;;12.80;3.50;;;;;;;16.86;60.88;102997.84;6180115;23;20059;-90
2022/10/06 11:35:25;;;;;;;11.80;3.33;;;;;;;16.77;60.98;103008.50;6181649;23;20017;-89
2022/10/06 11:38:00;;;;;;;9.55;3.40;;;;;;;16.68;61.97;103006.00;6180932;23;20009;-89
2022/10/06 11:40:49;;;;;;;10.38;3.55;;;;;;;16.66;61.50;103008.63;6179628;23;20103;-90
2022/10/06 11:43:45;;;;;;;10.88;3.42;;;;;;;16.65;62.62;102998.22;6181378;23;20005;-90
2022/10/06 11:46:22;;;;;;;9.43;3.72;;;;;;;16.64;61.09;103004.31;6179735;23;20009;-89
2022/10/06 11:48:48;;;;;;;9.60;2.95;;;;;;;16.62;62.20;102998.22;6181397;23;20431;-89